LFTW 170930Z AUTO 14008KT 8000 OVC004 12/12 Q1025 TEMPO 3000 RA

ElémentsDécodage
LFTW Station météo située sur l'aérodrome de NIMES Garons
170930Z émis le 17 du mois à 09h30 UTC
AUTO Bulletin édité par un automate
14008KT vent du 140°, 08 noeuds
8000 visibilité horizontale de 8000 mètres
OVC004 couverture nuageuse totale (8/8) à 400 pieds
12/12 température 12°C, point de rosée 12°C
 soit une humidité relative de 100%
Q1025 la pression au niveau de la mer (QNH) est de 1025 hPa
TEMPO fluctuation temporaire prévue
3000 visibilité horizontale de 3000 mètres
RA pluie